Ana Sayfa
METAR-TAF:

METAR-TAF

Havaalanları :

New Braunfels Municipal Airport

New Braunfels, Teksas, Amerika Birleşik Devletleri

Enlem: 29-42-31N, Boylam: 098-02-43W, yükseklik: 197 m

Güncel hava durumu gözlemi

Rapor saat 12:15 UTC de 18 dakika önce yapıldı.
Rüzgar batıdan 4 kt
Sıcaklık 7°C
Nem 100%
Basınç 1017 hPa
Görüş mesafesi: 4.8 km
Açık gökyüzü
Pus

METAR: KBAZ 081215Z AUTO 27004KT 3SM BR CLR 07/07 A3004 RMK AO2 T00720067

Saat: 06:33 (12:33 UTC)


TAF: eksik

4.000'den fazla havaalanı için hava durumu gözlemleri ve tahminleri (METAR ve TAF raporları).

Kullanılabilir istasyonlar harita üzerinde sarı ve kırmızı noktalarla gösterilir.

İstasyonun adını görmek için fareyi noktanın üzerinde gezdirin.

Sonrasında hava gözlem ve tahminlerini görmek için tıklayın.

Haritayı değiştirmek için: yaklaştırmak için siyah artı işaretli yeşil düğmeye ve uzaklaştırmak için de eksi işaretli düğmeye hızla tıklayın; bitişik haritalar için yeşil okları kullanın.


METAR-TAF: